Time;durP1;ratioP1;P1;durP2;ratioP2;P2;SDS_P1;SDS_P2;PMS_P1;PMS_P2;Temp;Humidity;BMP_temperature;BMP_pressure;BME280_temperature;BME280_humidity;BME280_pressure;Samples;Min_cycle;Max_cycle;Signal;HPM_P1;HPM_P2
2019/11/13 00:00:45;;;;;;;2.4;2.2;;;;;;;2.43;100;93980.83;;;;
2019/11/13 00:01:46;;;;;;;2.4;2.2;;;;;;;2.43;100;93980.83;;;;
2019/11/13 00:02:47;;;;;;;2.4;2.2;;;;;;;2.43;100;93980.83;;;;
2019/11/13 00:03:48;;;;;;;2.4;2.2;;;;;;;2.43;100;93980.83;;;;
2019/11/13 00:04:49;;;;;;;2.4;2.2;;;;;;;2.43;100;93980.83;;;;
2019/11/13 00:05:50;;;;;;;2.4;2.2;;;;;;;2.43;100;93980.83;;;;
2019/11/13 00:06:52;;;;;;;2.4;2.2;;;;;;;2.43;100;93980.83;;;;
2019/11/13 00:07:53;;;;;;;2.95;2.45;;;;;;;2.47;100;93946.06;;;;
2019/11/13 00:08:54;;;;;;;2.95;2.45;;;;;;;2.47;100;93946.06;;;;
2019/11/13 00:09:55;;;;;;;2.95;2.45;;;;;;;2.47;100;93946.06;;;;
2019/11/13 00:10:56;;;;;;;2.95;2.45;;;;;;;2.47;100;93946.06;;;;
2019/11/13 00:11:57;;;;;;;2.95;2.45;;;;;;;2.47;100;93946.06;;;;
2019/11/13 00:12:58;;;;;;;2.95;2.45;;;;;;;2.47;100;93946.06;;;;
2019/11/13 00:13:59;;;;;;;2.95;2.45;;;;;;;2.47;100;93946.06;;;;
2019/11/13 00:15:01;;;;;;;2.95;2.45;;;;;;;2.47;100;93946.06;;;;
2019/11/13 00:16:02;;;;;;;2.95;2.45;;;;;;;2.47;100;93946.06;;;;
2019/11/13 00:17:04;;;;;;;2.95;2.45;;;;;;;2.47;100;93946.06;;;;
2019/11/13 00:18:05;;;;;;;2.5;2.1;;;;;;;2.49;100;93945.43;;;;
2019/11/13 00:19:06;;;;;;;2.5;2.1;;;;;;;2.49;100;93945.43;;;;
2019/11/13 00:20:08;;;;;;;2.5;2.1;;;;;;;2.49;100;93945.43;;;;
2019/11/13 00:21:09;;;;;;;2.5;2.1;;;;;;;2.49;100;93945.43;;;;
2019/11/13 00:22:10;;;;;;;2.5;2.1;;;;;;;2.49;100;93945.43;;;;
2019/11/13 00:23:11;;;;;;;2.5;2.1;;;;;;;2.49;100;93945.43;;;;
2019/11/13 00:24:12;;;;;;;2.5;2.1;;;;;;;2.49;100;93945.43;;;;
2019/11/13 00:25:23;;;;;;;2.5;2.1;;;;;;;2.49;100;93945.43;;;;
2019/11/13 00:26:55;;;;;;;2.5;2.1;;;;;;;2.49;100;93945.43;;;;
2019/11/13 00:27:57;;;;;;;2.5;2.1;;;;;;;2.49;100;93945.43;;;;
2019/11/13 00:28:58;;;;;;;2.6;2.4;;;;;;;2.41;100;93929.21;;;;
2019/11/13 00:29:59;;;;;;;2.6;2.4;;;;;;;2.41;100;93929.21;;;;
2019/11/13 00:31:00;;;;;;;2.6;2.4;;;;;;;2.41;100;93929.21;;;;
2019/11/13 00:32:01;;;;;;;2.6;2.4;;;;;;;2.41;100;93929.21;;;;
2019/11/13 00:33:02;;;;;;;2.6;2.4;;;;;;;2.41;100;93929.21;;;;
2019/11/13 00:34:03;;;;;;;2.6;2.4;;;;;;;2.41;100;93929.21;;;;
2019/11/13 00:35:05;;;;;;;2.6;2.4;;;;;;;2.41;100;93929.21;;;;
2019/11/13 00:36:06;;;;;;;2.6;2.4;;;;;;;2.41;100;93929.21;;;;
2019/11/13 00:37:07;;;;;;;2.6;2.4;;;;;;;2.41;100;93929.21;;;;
2019/11/13 00:38:08;;;;;;;2.6;2.4;;;;;;;2.41;100;93929.21;;;;
2019/11/13 00:39:09;;;;;;;2.6;2.4;;;;;;;2.41;100;93929.21;;;;
2019/11/13 00:40:11;;;;;;;2.5;2.2;;;;;;;2.43;100;93948.46;;;;
2019/11/13 00:41:12;;;;;;;2.5;2.2;;;;;;;2.43;100;93948.46;;;;
2019/11/13 00:42:13;;;;;;;2.5;2.2;;;;;;;2.43;100;93948.46;;;;
2019/11/13 00:43:14;;;;;;;2.5;2.2;;;;;;;2.43;100;93948.46;;;;
2019/11/13 00:44:16;;;;;;;2.5;2.2;;;;;;;2.43;100;93948.46;;;;
2019/11/13 00:45:17;;;;;;;2.5;2.2;;;;;;;2.43;100;93948.46;;;;
2019/11/13 00:46:18;;;;;;;2.5;2.2;;;;;;;2.43;100;93948.46;;;;
2019/11/13 00:47:19;;;;;;;2.5;2.2;;;;;;;2.43;100;93948.46;;;;
2019/11/13 00:48:20;;;;;;;2.5;2.2;;;;;;;2.43;100;93948.46;;;;
2019/11/13 00:49:22;;;;;;;2.5;2.2;;;;;;;2.43;100;93948.46;;;;
2019/11/13 00:50:23;;;;;;;2.45;2.25;;;;;;;2.4;100;93939.98;;;;
2019/11/13 00:51:24;;;;;;;2.45;2.25;;;;;;;2.4;100;93939.98;;;;
2019/11/13 00:52:25;;;;;;;2.45;2.25;;;;;;;2.4;100;93939.98;;;;
2019/11/13 00:53:26;;;;;;;2.45;2.25;;;;;;;2.4;100;93939.98;;;;
2019/11/13 00:54:27;;;;;;;2.45;2.25;;;;;;;2.4;100;93939.98;;;;
2019/11/13 00:55:28;;;;;;;2.45;2.25;;;;;;;2.4;100;93939.98;;;;
2019/11/13 00:56:29;;;;;;;2.45;2.25;;;;;;;2.4;100;93939.98;;;;
2019/11/13 00:57:31;;;;;;;2.45;2.25;;;;;;;2.4;100;93939.98;;;;
2019/11/13 00:58:32;;;;;;;2.45;2.25;;;;;;;2.4;100;93939.98;;;;
2019/11/13 00:59:33;;;;;;;2.45;2.25;;;;;;;2.4;100;93939.98;;;;
2019/11/13 01:00:34;;;;;;;2.65;2.45;;;;;;;2.44;100;93911.89;;;;
2019/11/13 01:01:35;;;;;;;2.65;2.45;;;;;;;2.44;100;93911.89;;;;
2019/11/13 01:02:36;;;;;;;2.65;2.45;;;;;;;2.44;100;93911.89;;;;
2019/11/13 01:03:37;;;;;;;2.65;2.45;;;;;;;2.44;100;93911.89;;;;
2019/11/13 01:04:39;;;;;;;2.65;2.45;;;;;;;2.44;100;93911.89;;;;
2019/11/13 01:05:40;;;;;;;2.65;2.45;;;;;;;2.44;100;93911.89;;;;
2019/11/13 01:06:41;;;;;;;2.65;2.45;;;;;;;2.44;100;93911.89;;;;
2019/11/13 01:07:42;;;;;;;2.65;2.45;;;;;;;2.44;100;93911.89;;;;
2019/11/13 01:08:43;;;;;;;2.65;2.45;;;;;;;2.44;100;93911.89;;;;
2019/11/13 01:09:44;;;;;;;2.65;2.45;;;;;;;2.44;100;93911.89;;;;
2019/11/13 01:10:46;;;;;;;2.65;2.45;;;;;;;2.44;100;93911.89;;;;
2019/11/13 01:11:47;;;;;;;2.95;2.65;;;;;;;2.39;100;93940.21;;;;
2019/11/13 01:12:48;;;;;;;2.95;2.65;;;;;;;2.39;100;93940.21;;;;
2019/11/13 01:13:49;;;;;;;2.95;2.65;;;;;;;2.39;100;93940.21;;;;
2019/11/13 01:14:50;;;;;;;2.95;2.65;;;;;;;2.39;100;93940.21;;;;
2019/11/13 01:15:51;;;;;;;2.95;2.65;;;;;;;2.39;100;93940.21;;;;
2019/11/13 01:16:52;;;;;;;2.95;2.65;;;;;;;2.39;100;93940.21;;;;
2019/11/13 01:17:53;;;;;;;2.95;2.65;;;;;;;2.39;100;93940.21;;;;
2019/11/13 01:18:54;;;;;;;2.95;2.65;;;;;;;2.39;100;93940.21;;;;
2019/11/13 01:19:55;;;;;;;2.95;2.65;;;;;;;2.39;100;93940.21;;;;
2019/11/13 01:20:56;;;;;;;2.95;2.65;;;;;;;2.39;100;93940.21;;;;
2019/11/13 01:21:58;;;;;;;2.85;2.65;;;;;;;2.39;100;93935.8;;;;
2019/11/13 01:22:59;;;;;;;2.85;2.65;;;;;;;2.39;100;93935.8;;;;
2019/11/13 01:24:00;;;;;;;2.85;2.65;;;;;;;2.39;100;93935.8;;;;
2019/11/13 01:25:01;;;;;;;2.85;2.65;;;;;;;2.39;100;93935.8;;;;
2019/11/13 01:26:02;;;;;;;2.85;2.65;;;;;;;2.39;100;93935.8;;;;
2019/11/13 01:27:04;;;;;;;2.85;2.65;;;;;;;2.39;100;93935.8;;;;
2019/11/13 01:28:05;;;;;;;2.85;2.65;;;;;;;2.39;100;93935.8;;;;
2019/11/13 01:29:06;;;;;;;2.85;2.65;;;;;;;2.39;100;93935.8;;;;
2019/11/13 01:30:07;;;;;;;2.85;2.65;;;;;;;2.39;100;93935.8;;;;
2019/11/13 01:31:08;;;;;;;2.85;2.65;;;;;;;2.39;100;93935.8;;;;
2019/11/13 01:32:09;;;;;;;2.85;2.65;;;;;;;2.39;100;93935.8;;;;
2019/11/13 01:33:10;;;;;;;4.45;3.35;;;;;;;2.45;100;93922;;;;
2019/11/13 01:34:12;;;;;;;4.45;3.35;;;;;;;2.45;100;93922;;;;
2019/11/13 01:35:13;;;;;;;4.45;3.35;;;;;;;2.45;100;93922;;;;
2019/11/13 01:36:14;;;;;;;4.45;3.35;;;;;;;2.45;100;93922;;;;
2019/11/13 01:37:15;;;;;;;4.45;3.35;;;;;;;2.45;100;93922;;;;
2019/11/13 01:38:16;;;;;;;4.45;3.35;;;;;;;2.45;100;93922;;;;
2019/11/13 01:39:17;;;;;;;4.45;3.35;;;;;;;2.45;100;93922;;;;
2019/11/13 01:40:18;;;;;;;4.45;3.35;;;;;;;2.45;100;93922;;;;
2019/11/13 01:41:20;;;;;;;4.45;3.35;;;;;;;2.45;100;93922;;;;
2019/11/13 01:42:21;;;;;;;4.45;3.35;;;;;;;2.45;100;93922;;;;
2019/11/13 01:43:22;;;;;;;4.199999;3.45;;;;;;;2.42;100;93904.72;;;;
2019/11/13 01:44:23;;;;;;;4.199999;3.45;;;;;;;2.42;100;93904.72;;;;
2019/11/13 01:45:24;;;;;;;4.199999;3.45;;;;;;;2.42;100;93904.72;;;;
2019/11/13 01:46:25;;;;;;;4.199999;3.45;;;;;;;2.42;100;93904.72;;;;
2019/11/13 01:47:26;;;;;;;4.199999;3.45;;;;;;;2.42;100;93904.72;;;;
2019/11/13 01:48:31;;;;;;;4.199999;3.45;;;;;;;2.42;100;93904.72;;;;
2019/11/13 01:49:32;;;;;;;4.199999;3.45;;;;;;;2.42;100;93904.72;;;;
2019/11/13 01:50:33;;;;;;;4.199999;3.45;;;;;;;2.42;100;93904.72;;;;
2019/11/13 01:51:34;;;;;;;4.199999;3.45;;;;;;;2.42;100;93904.72;;;;
2019/11/13 01:52:35;;;;;;;4.199999;3.45;;;;;;;2.42;100;93904.72;;;;
2019/11/13 01:53:36;;;;;;;3.65;3.35;;;;;;;2.43;100;93891.19;;;;
2019/11/13 01:54:37;;;;;;;3.65;3.35;;;;;;;2.43;100;93891.19;;;;
2019/11/13 01:55:39;;;;;;;3.65;3.35;;;;;;;2.43;100;93891.19;;;;
2019/11/13 01:56:40;;;;;;;3.65;3.35;;;;;;;2.43;100;93891.19;;;;
2019/11/13 01:57:42;;;;;;;3.65;3.35;;;;;;;2.43;100;93891.19;;;;
2019/11/13 01:58:43;;;;;;;3.65;3.35;;;;;;;2.43;100;93891.19;;;;
2019/11/13 01:59:44;;;;;;;3.65;3.35;;;;;;;2.43;100;93891.19;;;;
2019/11/13 02:00:46;;;;;;;3.65;3.35;;;;;;;2.43;100;93891.19;;;;
2019/11/13 02:01:55;;;;;;;3.65;3.35;;;;;;;2.43;100;93891.19;;;;
2019/11/13 02:08:05;;;;;;;3.550001;3.15;;;;;;;2.52;100;93880.13;;;;
2019/11/13 02:09:06;;;;;;;3.550001;3.15;;;;;;;2.52;100;93880.13;;;;
2019/11/13 02:10:07;;;;;;;3.550001;3.15;;;;;;;2.52;100;93880.13;;;;
2019/11/13 02:11:08;;;;;;;3.550001;3.15;;;;;;;2.52;100;93880.13;;;;
2019/11/13 02:12:10;;;;;;;3.550001;3.15;;;;;;;2.52;100;93880.13;;;;
2019/11/13 02:13:11;;;;;;;3.550001;3.15;;;;;;;2.52;100;93880.13;;;;
2019/11/13 02:14:12;;;;;;;3.550001;3.15;;;;;;;2.52;100;93880.13;;;;
2019/11/13 02:15:13;;;;;;;3.25;2.95;;;;;;;2.5;100;93883.94;;;;
2019/11/13 02:16:14;;;;;;;3.25;2.95;;;;;;;2.5;100;93883.94;;;;
2019/11/13 02:17:16;;;;;;;3.25;2.95;;;;;;;2.5;100;93883.94;;;;
2019/11/13 02:18:17;;;;;;;3.25;2.95;;;;;;;2.5;100;93883.94;;;;
2019/11/13 02:19:18;;;;;;;3.25;2.95;;;;;;;2.5;100;93883.94;;;;
2019/11/13 02:20:19;;;;;;;3.25;2.95;;;;;;;2.5;100;93883.94;;;;
2019/11/13 02:21:21;;;;;;;3.25;2.95;;;;;;;2.5;100;93883.94;;;;
2019/11/13 02:22:22;;;;;;;3.25;2.95;;;;;;;2.5;100;93883.94;;;;
2019/11/13 02:23:23;;;;;;;3.25;2.95;;;;;;;2.5;100;93883.94;;;;
2019/11/13 02:24:24;;;;;;;3.25;2.95;;;;;;;2.5;100;93883.94;;;;
2019/11/13 02:25:26;;;;;;;3.65;3.25;;;;;;;2.48;100;93894.41;;;;
2019/11/13 02:26:27;;;;;;;3.65;3.25;;;;;;;2.48;100;93894.41;;;;
2019/11/13 02:27:28;;;;;;;3.65;3.25;;;;;;;2.48;100;93894.41;;;;
2019/11/13 02:28:29;;;;;;;3.65;3.25;;;;;;;2.48;100;93894.41;;;;
2019/11/13 02:29:30;;;;;;;3.65;3.25;;;;;;;2.48;100;93894.41;;;;
2019/11/13 02:30:31;;;;;;;3.65;3.25;;;;;;;2.48;100;93894.41;;;;
2019/11/13 02:31:33;;;;;;;3.65;3.25;;;;;;;2.48;100;93894.41;;;;
2019/11/13 02:32:34;;;;;;;3.65;3.25;;;;;;;2.48;100;93894.41;;;;
2019/11/13 02:33:35;;;;;;;3.65;3.25;;;;;;;2.48;100;93894.41;;;;
2019/11/13 02:34:36;;;;;;;3.65;3.25;;;;;;;2.48;100;93894.41;;;;
2019/11/13 02:35:37;;;;;;;3.65;3.25;;;;;;;2.48;100;93894.41;;;;
2019/11/13 02:36:38;;;;;;;3.6;2.95;;;;;;;2.4;100;93894.3;;;;
2019/11/13 02:37:39;;;;;;;3.6;2.95;;;;;;;2.4;100;93894.3;;;;
2019/11/13 02:38:41;;;;;;;3.6;2.95;;;;;;;2.4;100;93894.3;;;;
2019/11/13 02:39:42;;;;;;;3.6;2.95;;;;;;;2.4;100;93894.3;;;;
2019/11/13 02:40:43;;;;;;;3.6;2.95;;;;;;;2.4;100;93894.3;;;;
2019/11/13 02:41:44;;;;;;;3.6;2.95;;;;;;;2.4;100;93894.3;;;;
2019/11/13 02:42:45;;;;;;;3.6;2.95;;;;;;;2.4;100;93894.3;;;;
2019/11/13 02:43:46;;;;;;;3.6;2.95;;;;;;;2.4;100;93894.3;;;;
2019/11/13 02:44:47;;;;;;;3.6;2.95;;;;;;;2.4;100;93894.3;;;;
2019/11/13 02:45:48;;;;;;;3.6;2.95;;;;;;;2.4;100;93894.3;;;;
2019/11/13 02:46:50;;;;;;;4.05;3.2;;;;;;;2.35;100;93892.41;;;;
2019/11/13 02:47:51;;;;;;;4.05;3.2;;;;;;;2.35;100;93892.41;;;;
2019/11/13 02:48:52;;;;;;;4.05;3.2;;;;;;;2.35;100;93892.41;;;;
2019/11/13 02:49:53;;;;;;;4.05;3.2;;;;;;;2.35;100;93892.41;;;;
2019/11/13 02:50:54;;;;;;;4.05;3.2;;;;;;;2.35;100;93892.41;;;;
2019/11/13 02:51:55;;;;;;;4.05;3.2;;;;;;;2.35;100;93892.41;;;;
2019/11/13 02:52:56;;;;;;;4.05;3.2;;;;;;;2.35;100;93892.41;;;;
2019/11/13 02:53:58;;;;;;;4.05;3.2;;;;;;;2.35;100;93892.41;;;;
2019/11/13 02:54:59;;;;;;;4.05;3.2;;;;;;;2.35;100;93892.41;;;;
2019/11/13 02:56:00;;;;;;;4.05;3.2;;;;;;;2.35;100;93892.41;;;;
2019/11/13 02:57:01;;;;;;;4.05;3.2;;;;;;;2.35;100;93892.41;;;;
2019/11/13 02:58:02;;;;;;;3.85;3.2;;;;;;;2.32;100;93901.76;;;;
2019/11/13 02:59:03;;;;;;;3.85;3.2;;;;;;;2.32;100;93901.76;;;;
2019/11/13 03:00:05;;;;;;;3.85;3.2;;;;;;;2.32;100;93901.76;;;;
2019/11/13 03:01:06;;;;;;;3.85;3.2;;;;;;;2.32;100;93901.76;;;;
2019/11/13 03:02:07;;;;;;;3.85;3.2;;;;;;;2.32;100;93901.76;;;;
2019/11/13 03:03:08;;;;;;;3.85;3.2;;;;;;;2.32;100;93901.76;;;;
2019/11/13 03:04:10;;;;;;;3.85;3.2;;;;;;;2.32;100;93901.76;;;;
2019/11/13 03:05:11;;;;;;;3.85;3.2;;;;;;;2.32;100;93901.76;;;;
2019/11/13 03:06:12;;;;;;;3.85;3.2;;;;;;;2.32;100;93901.76;;;;
2019/11/13 03:07:13;;;;;;;3.85;3.2;;;;;;;2.32;100;93901.76;;;;
2019/11/13 03:09:20;;;;;;;3;2.7;;;;;;;2.32;100;93905.64;;;;
2019/11/13 03:10:22;;;;;;;3;2.7;;;;;;;2.32;100;93905.64;;;;
2019/11/13 03:11:23;;;;;;;3;2.7;;;;;;;2.32;100;93905.64;;;;
2019/11/13 03:12:24;;;;;;;3;2.7;;;;;;;2.32;100;93905.64;;;;
2019/11/13 03:13:25;;;;;;;3;2.7;;;;;;;2.32;100;93905.64;;;;
2019/11/13 03:14:26;;;;;;;3;2.7;;;;;;;2.32;100;93905.64;;;;
2019/11/13 03:15:27;;;;;;;3;2.7;;;;;;;2.32;100;93905.64;;;;
2019/11/13 03:16:28;;;;;;;3;2.7;;;;;;;2.32;100;93905.64;;;;
2019/11/13 03:17:30;;;;;;;3;2.7;;;;;;;2.32;100;93905.64;;;;
2019/11/13 03:18:31;;;;;;;3.75;2.8;;;;;;;2.37;100;93903.16;;;;
2019/11/13 03:19:32;;;;;;;3.75;2.8;;;;;;;2.37;100;93903.16;;;;
2019/11/13 03:20:33;;;;;;;3.75;2.8;;;;;;;2.37;100;93903.16;;;;
2019/11/13 03:21:34;;;;;;;3.75;2.8;;;;;;;2.37;100;93903.16;;;;
2019/11/13 03:22:36;;;;;;;3.75;2.8;;;;;;;2.37;100;93903.16;;;;
2019/11/13 03:23:37;;;;;;;3.75;2.8;;;;;;;2.37;100;93903.16;;;;
2019/11/13 03:24:38;;;;;;;3.75;2.8;;;;;;;2.37;100;93903.16;;;;
2019/11/13 03:25:39;;;;;;;3.75;2.8;;;;;;;2.37;100;93903.16;;;;
2019/11/13 03:26:40;;;;;;;3.75;2.8;;;;;;;2.37;100;93903.16;;;;
2019/11/13 03:27:41;;;;;;;3.75;2.8;;;;;;;2.37;100;93903.16;;;;
2019/11/13 03:28:43;;;;;;;3.75;2.8;;;;;;;2.37;100;93903.16;;;;
2019/11/13 03:29:44;;;;;;;3;2.35;;;;;;;2.29;100;93913.65;;;;
2019/11/13 03:30:45;;;;;;;3;2.35;;;;;;;2.29;100;93913.65;;;;
2019/11/13 03:31:46;;;;;;;3;2.35;;;;;;;2.29;100;93913.65;;;;
2019/11/13 03:32:47;;;;;;;3;2.35;;;;;;;2.29;100;93913.65;;;;
2019/11/13 03:33:48;;;;;;;3;2.35;;;;;;;2.29;100;93913.65;;;;
2019/11/13 03:34:50;;;;;;;3;2.35;;;;;;;2.29;100;93913.65;;;;
2019/11/13 03:35:51;;;;;;;3;2.35;;;;;;;2.29;100;93913.65;;;;
2019/11/13 03:36:52;;;;;;;3;2.35;;;;;;;2.29;100;93913.65;;;;
2019/11/13 03:37:53;;;;;;;3;2.35;;;;;;;2.29;100;93913.65;;;;
2019/11/13 03:38:54;;;;;;;3;2.35;;;;;;;2.29;100;93913.65;;;;
2019/11/13 03:39:55;;;;;;;2.55;2.25;;;;;;;2.23;100;93917.72;;;;
2019/11/13 03:40:56;;;;;;;2.55;2.25;;;;;;;2.23;100;93917.72;;;;
2019/11/13 03:41:58;;;;;;;2.55;2.25;;;;;;;2.23;100;93917.72;;;;
2019/11/13 03:43:00;;;;;;;2.55;2.25;;;;;;;2.23;100;93917.72;;;;
2019/11/13 03:44:02;;;;;;;2.55;2.25;;;;;;;2.23;100;93917.72;;;;
2019/11/13 03:45:03;;;;;;;2.55;2.25;;;;;;;2.23;100;93917.72;;;;
2019/11/13 03:46:05;;;;;;;2.55;2.25;;;;;;;2.23;100;93917.72;;;;
2019/11/13 03:47:08;;;;;;;2.55;2.25;;;;;;;2.23;100;93917.72;;;;
2019/11/13 03:48:09;;;;;;;2.55;2.25;;;;;;;2.23;100;93917.72;;;;
2019/11/13 03:49:10;;;;;;;2.55;2.25;;;;;;;2.23;100;93917.72;;;;
2019/11/13 03:50:13;;;;;;;2.55;2.25;;;;;;;2.23;100;93917.72;;;;
2019/11/13 03:51:14;;;;;;;2.7;2.3;;;;;;;2.12;100;93921.51;;;;
2019/11/13 03:52:51;;;;;;;2.7;2.3;;;;;;;2.12;100;93921.51;;;;
2019/11/13 03:53:54;;;;;;;2.7;2.3;;;;;;;2.12;100;93921.51;;;;
2019/11/13 03:54:55;;;;;;;2.7;2.3;;;;;;;2.12;100;93921.51;;;;
2019/11/13 03:55:56;;;;;;;2.7;2.3;;;;;;;2.12;100;93921.51;;;;
2019/11/13 03:56:57;;;;;;;2.7;2.3;;;;;;;2.12;100;93921.51;;;;
2019/11/13 03:57:58;;;;;;;2.7;2.3;;;;;;;2.12;100;93921.51;;;;
2019/11/13 03:58:59;;;;;;;2.7;2.3;;;;;;;2.12;100;93921.51;;;;
2019/11/13 04:00:01;;;;;;;2.7;2.3;;;;;;;2.12;100;93921.51;;;;
2019/11/13 04:01:03;;;;;;;2.6;2.1;;;;;;;2.08;100;93918.47;;;;
2019/11/13 04:02:04;;;;;;;2.6;2.1;;;;;;;2.08;100;93918.47;;;;
2019/11/13 04:03:05;;;;;;;2.6;2.1;;;;;;;2.08;100;93918.47;;;;
2019/11/13 04:04:06;;;;;;;2.6;2.1;;;;;;;2.08;100;93918.47;;;;
2019/11/13 04:05:07;;;;;;;2.6;2.1;;;;;;;2.08;100;93918.47;;;;
2019/11/13 04:06:09;;;;;;;2.6;2.1;;;;;;;2.08;100;93918.47;;;;
2019/11/13 04:07:10;;;;;;;2.6;2.1;;;;;;;2.08;100;93918.47;;;;
2019/11/13 04:08:11;;;;;;;2.6;2.1;;;;;;;2.08;100;93918.47;;;;
2019/11/13 04:09:12;;;;;;;2.6;2.1;;;;;;;2.08;100;93918.47;;;;
2019/11/13 04:10:15;;;;;;;2.6;2.1;;;;;;;2.08;100;93918.47;;;;
2019/11/13 04:11:16;;;;;;;2.6;2.1;;;;;;;2.08;100;93918.47;;;;
2019/11/13 04:12:17;;;;;;;3.4;2.15;;;;;;;2.06;100;93923.71;;;;
2019/11/13 04:13:19;;;;;;;3.4;2.15;;;;;;;2.06;100;93923.71;;;;
2019/11/13 04:14:20;;;;;;;3.4;2.15;;;;;;;2.06;100;93923.71;;;;
2019/11/13 04:15:21;;;;;;;3.4;2.15;;;;;;;2.06;100;93923.71;;;;
2019/11/13 04:16:22;;;;;;;3.4;2.15;;;;;;;2.06;100;93923.71;;;;
2019/11/13 04:17:29;;;;;;;3.4;2.15;;;;;;;2.06;100;93923.71;;;;
2019/11/13 04:18:32;;;;;;;3.4;2.15;;;;;;;2.06;100;93923.71;;;;
2019/11/13 04:19:38;;;;;;;3.4;2.15;;;;;;;2.06;100;93923.71;;;;
2019/11/13 04:20:41;;;;;;;3.4;2.15;;;;;;;2.06;100;93923.71;;;;
2019/11/13 04:21:46;;;;;;;3.4;2.15;;;;;;;2.06;100;93923.71;;;;
2019/11/13 04:22:47;;;;;;;2.65;2.25;;;;;;;1.97;100;93920.9;;;;
2019/11/13 04:23:50;;;;;;;2.65;2.25;;;;;;;1.97;100;93920.9;;;;
2019/11/13 04:24:51;;;;;;;2.65;2.25;;;;;;;1.97;100;93920.9;;;;
2019/11/13 04:25:53;;;;;;;2.65;2.25;;;;;;;1.97;100;93920.9;;;;
2019/11/13 04:26:54;;;;;;;2.65;2.25;;;;;;;1.97;100;93920.9;;;;
2019/11/13 04:27:55;;;;;;;2.65;2.25;;;;;;;1.97;100;93920.9;;;;
2019/11/13 04:28:56;;;;;;;2.65;2.25;;;;;;;1.97;100;93920.9;;;;
2019/11/13 04:29:57;;;;;;;2.65;2.25;;;;;;;1.97;100;93920.9;;;;
2019/11/13 04:30:58;;;;;;;2.65;2.25;;;;;;;1.97;100;93920.9;;;;
2019/11/13 04:31:59;;;;;;;2.65;2.25;;;;;;;1.97;100;93920.9;;;;
2019/11/13 04:33:00;;;;;;;2.3;2.1;;;;;;;1.97;100;93917.02;;;;
2019/11/13 04:34:02;;;;;;;2.3;2.1;;;;;;;1.97;100;93917.02;;;;
2019/11/13 04:35:03;;;;;;;2.3;2.1;;;;;;;1.97;100;93917.02;;;;
2019/11/13 04:36:04;;;;;;;2.3;2.1;;;;;;;1.97;100;93917.02;;;;
2019/11/13 04:37:05;;;;;;;2.3;2.1;;;;;;;1.97;100;93917.02;;;;
2019/11/13 04:38:06;;;;;;;2.3;2.1;;;;;;;1.97;100;93917.02;;;;
2019/11/13 04:39:07;;;;;;;2.3;2.1;;;;;;;1.97;100;93917.02;;;;
2019/11/13 04:40:09;;;;;;;2.3;2.1;;;;;;;1.97;100;93917.02;;;;
2019/11/13 04:41:10;;;;;;;2.3;2.1;;;;;;;1.97;100;93917.02;;;;
2019/11/13 04:42:11;;;;;;;2.3;2.1;;;;;;;1.97;100;93917.02;;;;
2019/11/13 04:43:12;;;;;;;2.3;2.1;;;;;;;1.97;100;93917.02;;;;
2019/11/13 04:44:13;;;;;;;2.25;2.05;;;;;;;1.97;100;93916.92;;;;
2019/11/13 04:45:14;;;;;;;2.25;2.05;;;;;;;1.97;100;93916.92;;;;
2019/11/13 04:46:16;;;;;;;2.25;2.05;;;;;;;1.97;100;93916.92;;;;
2019/11/13 04:47:17;;;;;;;2.25;2.05;;;;;;;1.97;100;93916.92;;;;
2019/11/13 04:48:18;;;;;;;2.25;2.05;;;;;;;1.97;100;93916.92;;;;
2019/11/13 04:49:19;;;;;;;2.25;2.05;;;;;;;1.97;100;93916.92;;;;
2019/11/13 04:50:20;;;;;;;2.25;2.05;;;;;;;1.97;100;93916.92;;;;
2019/11/13 04:51:22;;;;;;;2.25;2.05;;;;;;;1.97;100;93916.92;;;;
2019/11/13 04:52:23;;;;;;;2.25;2.05;;;;;;;1.97;100;93916.92;;;;
2019/11/13 04:53:25;;;;;;;2.25;2.05;;;;;;;1.97;100;93916.92;;;;
2019/11/13 04:54:26;;;;;;;2.35;2.15;;;;;;;1.9;100;93905.1;;;;
2019/11/13 04:55:27;;;;;;;2.35;2.15;;;;;;;1.9;100;93905.1;;;;
2019/11/13 04:56:29;;;;;;;2.35;2.15;;;;;;;1.9;100;93905.1;;;;
2019/11/13 04:57:30;;;;;;;2.35;2.15;;;;;;;1.9;100;93905.1;;;;
2019/11/13 04:58:31;;;;;;;2.35;2.15;;;;;;;1.9;100;93905.1;;;;
2019/11/13 04:59:32;;;;;;;2.35;2.15;;;;;;;1.9;100;93905.1;;;;
2019/11/13 05:00:33;;;;;;;2.35;2.15;;;;;;;1.9;100;93905.1;;;;
2019/11/13 05:01:34;;;;;;;2.35;2.15;;;;;;;1.9;100;93905.1;;;;
2019/11/13 05:02:35;;;;;;;2.35;2.15;;;;;;;1.9;100;93905.1;;;;
2019/11/13 05:03:36;;;;;;;2.35;2.15;;;;;;;1.9;100;93905.1;;;;
2019/11/13 05:04:37;;;;;;;2.35;2.05;;;;;;;1.91;100;93890.34;;;;
2019/11/13 05:05:38;;;;;;;2.35;2.05;;;;;;;1.91;100;93890.34;;;;
2019/11/13 05:06:40;;;;;;;2.35;2.05;;;;;;;1.91;100;93890.34;;;;
2019/11/13 05:07:41;;;;;;;2.35;2.05;;;;;;;1.91;100;93890.34;;;;
2019/11/13 05:08:42;;;;;;;2.35;2.05;;;;;;;1.91;100;93890.34;;;;
2019/11/13 05:09:43;;;;;;;2.35;2.05;;;;;;;1.91;100;93890.34;;;;
2019/11/13 05:10:44;;;;;;;2.35;2.05;;;;;;;1.91;100;93890.34;;;;
2019/11/13 05:11:45;;;;;;;2.35;2.05;;;;;;;1.91;100;93890.34;;;;
2019/11/13 05:12:46;;;;;;;2.35;2.05;;;;;;;1.91;100;93890.34;;;;
2019/11/13 05:13:48;;;;;;;2.35;2.05;;;;;;;1.91;100;93890.34;;;;
2019/11/13 05:14:49;;;;;;;2.35;2.05;;;;;;;1.91;100;93890.34;;;;
2019/11/13 05:15:50;;;;;;;2.8;2.05;;;;;;;1.85;100;93891.24;;;;
2019/11/13 05:16:51;;;;;;;2.8;2.05;;;;;;;1.85;100;93891.24;;;;
2019/11/13 05:17:53;;;;;;;2.8;2.05;;;;;;;1.85;100;93891.24;;;;
2019/11/13 05:18:54;;;;;;;2.8;2.05;;;;;;;1.85;100;93891.24;;;;
2019/11/13 05:19:55;;;;;;;2.8;2.05;;;;;;;1.85;100;93891.24;;;;
2019/11/13 05:20:56;;;;;;;2.8;2.05;;;;;;;1.85;100;93891.24;;;;
2019/11/13 05:21:57;;;;;;;2.8;2.05;;;;;;;1.85;100;93891.24;;;;
2019/11/13 05:22:58;;;;;;;2.8;2.05;;;;;;;1.85;100;93891.24;;;;
2019/11/13 05:23:59;;;;;;;2.8;2.05;;;;;;;1.85;100;93891.24;;;;
2019/11/13 05:25:00;;;;;;;2.8;2.05;;;;;;;1.85;100;93891.24;;;;
2019/11/13 05:26:02;;;;;;;2.4;1.9;;;;;;;1.88;100;93890.37;;;;
2019/11/13 05:27:03;;;;;;;2.4;1.9;;;;;;;1.88;100;93890.37;;;;
2019/11/13 05:28:04;;;;;;;2.4;1.9;;;;;;;1.88;100;93890.37;;;;
2019/11/13 05:29:05;;;;;;;2.4;1.9;;;;;;;1.88;100;93890.37;;;;
2019/11/13 05:30:06;;;;;;;2.4;1.9;;;;;;;1.88;100;93890.37;;;;
2019/11/13 05:31:07;;;;;;;2.4;1.9;;;;;;;1.88;100;93890.37;;;;
2019/11/13 05:32:08;;;;;;;2.4;1.9;;;;;;;1.88;100;93890.37;;;;
2019/11/13 05:33:10;;;;;;;2.4;1.9;;;;;;;1.88;100;93890.37;;;;
2019/11/13 05:34:11;;;;;;;2.4;1.9;;;;;;;1.88;100;93890.37;;;;
2019/11/13 05:35:12;;;;;;;2.4;1.9;;;;;;;1.88;100;93890.37;;;;
2019/11/13 05:36:13;;;;;;;2.4;1.9;;;;;;;1.88;100;93890.37;;;;
2019/11/13 05:37:14;;;;;;;2.4;1.75;;;;;;;1.87;100;93893.95;;;;
2019/11/13 05:38:15;;;;;;;2.4;1.75;;;;;;;1.87;100;93893.95;;;;
2019/11/13 05:39:16;;;;;;;2.4;1.75;;;;;;;1.87;100;93893.95;;;;
2019/11/13 05:40:17;;;;;;;2.4;1.75;;;;;;;1.87;100;93893.95;;;;
2019/11/13 05:41:18;;;;;;;2.4;1.75;;;;;;;1.87;100;93893.95;;;;
2019/11/13 05:42:20;;;;;;;2.4;1.75;;;;;;;1.87;100;93893.95;;;;
2019/11/13 05:43:21;;;;;;;2.4;1.75;;;;;;;1.87;100;93893.95;;;;
2019/11/13 05:44:22;;;;;;;2.4;1.75;;;;;;;1.87;100;93893.95;;;;
2019/11/13 05:45:23;;;;;;;2.4;1.75;;;;;;;1.87;100;93893.95;;;;
2019/11/13 05:46:24;;;;;;;2.4;1.75;;;;;;;1.87;100;93893.95;;;;
2019/11/13 05:47:25;;;;;;;3.05;2.1;;;;;;;1.94;100;93893.92;;;;
2019/11/13 05:48:26;;;;;;;3.05;2.1;;;;;;;1.94;100;93893.92;;;;
2019/11/13 05:49:27;;;;;;;3.05;2.1;;;;;;;1.94;100;93893.92;;;;
2019/11/13 05:50:28;;;;;;;3.05;2.1;;;;;;;1.94;100;93893.92;;;;
2019/11/13 05:51:29;;;;;;;3.05;2.1;;;;;;;1.94;100;93893.92;;;;
2019/11/13 05:52:31;;;;;;;3.05;2.1;;;;;;;1.94;100;93893.92;;;;
2019/11/13 05:53:32;;;;;;;3.05;2.1;;;;;;;1.94;100;93893.92;;;;
2019/11/13 05:54:33;;;;;;;3.05;2.1;;;;;;;1.94;100;93893.92;;;;
2019/11/13 05:55:34;;;;;;;3.05;2.1;;;;;;;1.94;100;93893.92;;;;
2019/11/13 05:56:35;;;;;;;3.05;2.1;;;;;;;1.94;100;93893.92;;;;
2019/11/13 05:57:36;;;;;;;2.45;2.2;;;;;;;1.95;100;93900.45;;;;
2019/11/13 05:58:37;;;;;;;2.45;2.2;;;;;;;1.95;100;93900.45;;;;
2019/11/13 05:59:38;;;;;;;2.45;2.2;;;;;;;1.95;100;93900.45;;;;
2019/11/13 06:00:39;;;;;;;2.45;2.2;;;;;;;1.95;100;93900.45;;;;
2019/11/13 06:01:40;;;;;;;2.45;2.2;;;;;;;1.95;100;93900.45;;;;
2019/11/13 06:02:41;;;;;;;2.45;2.2;;;;;;;1.95;100;93900.45;;;;
2019/11/13 06:03:43;;;;;;;2.45;2.2;;;;;;;1.95;100;93900.45;;;;
2019/11/13 06:04:44;;;;;;;2.45;2.2;;;;;;;1.95;100;93900.45;;;;
2019/11/13 06:05:45;;;;;;;2.45;2.2;;;;;;;1.95;100;93900.45;;;;
2019/11/13 06:06:46;;;;;;;2.45;2.2;;;;;;;1.95;100;93900.45;;;;
2019/11/13 06:07:47;;;;;;;2.45;2.2;;;;;;;1.95;100;93900.45;;;;
2019/11/13 06:08:48;;;;;;;2.2;2;;;;;;;2;100;93912.48;;;;
2019/11/13 06:09:49;;;;;;;2.2;2;;;;;;;2;100;93912.48;;;;
2019/11/13 06:10:50;;;;;;;2.2;2;;;;;;;2;100;93912.48;;;;
2019/11/13 06:11:51;;;;;;;2.2;2;;;;;;;2;100;93912.48;;;;
2019/11/13 06:12:52;;;;;;;2.2;2;;;;;;;2;100;93912.48;;;;
2019/11/13 06:13:54;;;;;;;2.2;2;;;;;;;2;100;93912.48;;;;
2019/11/13 06:14:55;;;;;;;2.2;2;;;;;;;2;100;93912.48;;;;
2019/11/13 06:15:56;;;;;;;2.2;2;;;;;;;2;100;93912.48;;;;
2019/11/13 06:16:57;;;;;;;2.2;2;;;;;;;2;100;93912.48;;;;
2019/11/13 06:17:58;;;;;;;2.2;2;;;;;;;2;100;93912.48;;;;
2019/11/13 06:18:59;;;;;;;2.15;1.6;;;;;;;1.99;100;93909.12;;;;
2019/11/13 06:20:00;;;;;;;2.15;1.6;;;;;;;1.99;100;93909.12;;;;
2019/11/13 06:21:02;;;;;;;2.15;1.6;;;;;;;1.99;100;93909.12;;;;
2019/11/13 06:22:03;;;;;;;2.15;1.6;;;;;;;1.99;100;93909.12;;;;
2019/11/13 06:23:04;;;;;;;2.15;1.6;;;;;;;1.99;100;93909.12;;;;
2019/11/13 06:24:05;;;;;;;2.15;1.6;;;;;;;1.99;100;93909.12;;;;
2019/11/13 06:25:06;;;;;;;2.15;1.6;;;;;;;1.99;100;93909.12;;;;
2019/11/13 06:26:08;;;;;;;2.15;1.6;;;;;;;1.99;100;93909.12;;;;
2019/11/13 06:27:11;;;;;;;2.15;1.6;;;;;;;1.99;100;93909.12;;;;
2019/11/13 06:28:12;;;;;;;2.15;1.6;;;;;;;1.99;100;93909.12;;;;
2019/11/13 06:29:13;;;;;;;2.15;1.6;;;;;;;1.99;100;93909.12;;;;
2019/11/13 06:30:14;;;;;;;3.15;2.7;;;;;;;1.99;100;93909.53;;;;
2019/11/13 06:31:16;;;;;;;3.15;2.7;;;;;;;1.99;100;93909.53;;;;
2019/11/13 06:32:17;;;;;;;3.15;2.7;;;;;;;1.99;100;93909.53;;;;
2019/11/13 06:33:18;;;;;;;3.15;2.7;;;;;;;1.99;100;93909.53;;;;